Eggville, Mississippi
Current Conditions -  °F | °C
As of 7:53 AM on Tuesday 27 Jan 2015 (Local Time) from KTUP Reporting Station
Clear Clear  
Wind Chill: 41°   Ceiling: Unl
Heat Index: 45°   Visibility: 10mi
Dew Point: 34°   Wind: 7mph
Humidity: 65%   Direction: 340°NNW
Pressure: 30.05"   Gusts: NA
Location:  34.3954°N, 88.6292°W
Report Text: KTUP 271353Z 34006KT 10SM CLR 07/01 A3005 RMK AO2 SLP174 T00720011
Loading
Personal Weather Stations






























Interactive Weather Map New forecast layout! Learn more

10-Day Weather Forecast

Advertisements
Track Severe Weather on mobile